59CA weather

Little Hands STOLport
San Ramon, California, United States

Public forecast

Using degrees Fahrenheit for public forecast. Weather courtesy of forecast.io.

METAR (pilot weather report)

Closest report is Hayward Executive Airport, 9.7 nm (18.0 km) SSW. Retrieved 2019/06/16 02:54 UTC (8 minutes ago):

KHWD 160254Z 27012KT 10SM OVC011 14/11 A2995 RMK AO2 SLP150 T01390106 56001

TAF (pilot weather forecast)

Forecast is more than 12 hours old.

Closest forecast is Metropolitan Oakland International Airport, 10.4 nm (19.2 km) WSW. Retrieved 2019/06/15 00:36 UTC (1 day ago):

TAF KOAK 152333Z 1600/1706 26011KT P6SM BKN016 FM160300 29015KT P6SM BKN012 FM160600 29007KT P6SM OVC010 FM162100 29010KT P6SM SCT015 FM162300 29014KT P6SM FEW010 FM170400 29008KT P6SM SCT010